Time;durP1;ratioP1;P1;durP2;ratioP2;P2;SDS_P1;SDS_P2;PMS_P1;PMS_P2;Temp;Humidity;BMP_temperature;BMP_pressure;BME280_temperature;BME280_humidity;BME280_pressure;Samples;Min_cycle;Max_cycle;Signal;HPM_P1;HPM_P2
2023/06/07 00:02:18;;;;;;;;;18.75;18.75;;;;;18.26;54.37;100182.28;5095097;28;9497;-60
2023/06/07 00:04:59;;;;;;;;;19.00;18.00;;;;;18.26;54.63;100179.59;5095252;28;8829;-60
2023/06/07 00:07:27;;;;;;;;;23.00;21.50;;;;;18.26;55.00;100178.72;5096274;28;9519;-60
2023/06/07 00:09:55;;;;;;;;;15.50;15.50;;;;;18.26;54.72;100184.13;5096060;28;8830;-60
2023/06/07 00:12:23;;;;;;;;;21.25;21.25;;;;;18.24;54.89;100178.91;5095784;28;8903;-60
2023/06/07 00:14:51;;;;;;;;;13.50;13.50;;;;;18.23;54.81;100182.59;5095677;28;9639;-60
2023/06/07 00:17:19;;;;;;;;;20.50;19.50;;;;;18.24;54.93;100178.06;5095245;28;8845;-60
2023/06/07 00:19:46;;;;;;;;;20.00;18.25;;;;;18.22;54.76;100180.91;5095504;28;8838;-58
2023/06/07 00:22:14;;;;;;;;;15.25;14.00;;;;;18.22;54.68;100172.81;5095892;28;8818;-60
2023/06/07 00:24:42;;;;;;;;;17.00;15.50;;;;;18.22;55.21;100180.09;5099057;28;8836;-60
2023/06/07 00:27:10;;;;;;;;;15.00;14.50;;;;;18.21;55.13;100187.31;5100103;28;9538;-59
2023/06/07 00:29:37;;;;;;;;;16.80;16.20;;;;;18.21;54.76;100183.78;5099508;28;8949;-58
2023/06/07 00:32:05;;;;;;;;;13.00;13.00;;;;;18.20;55.22;100187.47;5099394;28;8862;-60
2023/06/07 00:34:33;;;;;;;;;16.00;15.75;;;;;18.20;55.00;100182.06;5099333;28;8972;-60
2023/06/07 00:37:01;;;;;;;;;19.75;19.00;;;;;18.20;55.18;100184.78;5099388;28;8834;-60
2023/06/07 00:39:29;;;;;;;;;18.50;16.50;;;;;18.20;54.68;100184.78;5099270;28;8826;-59
2023/06/07 00:41:57;;;;;;;;;16.00;13.00;;;;;18.20;54.78;100184.78;5099225;28;8845;-60
2023/06/07 00:44:24;;;;;;;;;15.80;13.80;;;;;18.19;54.94;100186.63;5099868;28;8848;-60
2023/06/07 00:46:52;;;;;;;;;13.00;13.00;;;;;18.17;55.20;100185.97;5099555;28;8822;-59
2023/06/07 00:49:20;;;;;;;;;14.50;13.50;;;;;18.18;55.15;100189.50;5099014;28;8849;-58
2023/06/07 00:51:48;;;;;;;;;19.00;18.25;;;;;18.16;55.04;100188.81;5098231;28;8830;-60
2023/06/07 00:54:17;;;;;;;;;19.00;18.50;;;;;18.14;54.99;100185.44;5098250;28;8862;-59
2023/06/07 00:56:45;;;;;;;;;17.00;13.75;;;;;18.12;54.94;100191.00;5098500;28;8814;-60
2023/06/07 00:59:13;;;;;;;;;16.00;13.00;;;;;18.11;55.04;100186.63;5099057;28;8852;-60
2023/06/07 01:01:41;;;;;;;;;8.50;8.25;;;;;18.09;55.40;100182.38;5099271;28;8818;-59
2023/06/07 01:04:09;;;;;;;;;13.50;12.75;;;;;18.09;55.65;100185.94;5099357;28;8850;-60
2023/06/07 01:06:37;;;;;;;;;18.00;16.00;;;;;18.09;55.46;100185.09;5098738;28;8976;-59
2023/06/07 01:09:06;;;;;;;;;12.25;12.25;;;;;18.09;55.33;100182.38;5097768;28;8825;-60
2023/06/07 01:11:34;;;;;;;;;12.60;11.60;;;;;18.07;55.66;100182.53;5097624;28;8841;-60
2023/06/07 01:14:01;;;;;;;;;17.00;15.75;;;;;18.05;55.32;100189.97;5097442;28;8837;-60
2023/06/07 01:16:29;;;;;;;;;14.00;13.00;;;;;18.05;55.32;100183.72;5098017;28;8867;-60
2023/06/07 01:18:57;;;;;;;;;17.75;16.50;;;;;18.03;55.67;100186.59;5098567;28;8837;-58
2023/06/07 01:21:25;;;;;;;;;15.00;14.00;;;;;18.02;55.41;100184.91;5098924;28;8842;-60
2023/06/07 01:23:56;;;;;;;;;15.25;14.00;;;;;18.03;55.38;100180.34;5097981;28;8826;-60
2023/06/07 01:26:26;;;;;;;;;18.00;15.50;;;;;18.05;55.58;100183.72;5098203;28;8814;-60
2023/06/07 01:28:54;;;;;;;;;17.50;16.50;;;;;18.05;55.98;100183.72;5098087;28;8838;-60
2023/06/07 01:31:21;;;;;;;;;15.00;14.00;;;;;18.04;55.75;100188.28;5098095;28;8829;-60
2023/06/07 01:33:50;;;;;;;;;17.00;14.00;;;;;18.04;55.44;100182.88;5097630;28;8850;-60
2023/06/07 01:36:18;;;;;;;;;15.25;14.50;;;;;18.05;55.71;100184.56;5098153;28;8845;-60
2023/06/07 01:38:46;;;;;;;;;13.00;12.00;;;;;18.05;55.57;100172.94;5098626;28;8814;-60
2023/06/07 01:41:13;;;;;;;;;14.25;13.50;;;;;18.04;56.01;100172.09;5097737;28;8830;-60
2023/06/07 01:43:41;;;;;;;;;12.00;9.75;;;;;18.02;55.73;100171.44;5097998;28;8826;-60
2023/06/07 01:46:09;;;;;;;;;14.00;13.00;;;;;18.01;55.86;100171.59;5097261;28;8826;-60
2023/06/07 01:48:37;;;;;;;;;14.00;12.50;;;;;17.98;56.22;100167.34;5097446;28;8853;-59
2023/06/07 01:51:05;;;;;;;;;10.50;10.00;;;;;17.98;56.16;100171.94;5097989;28;8806;-60
2023/06/07 01:53:32;;;;;;;;;13.00;12.50;;;;;17.97;56.37;100168.38;5098051;28;8829;-60
2023/06/07 01:56:00;;;;;;;;;15.00;12.75;;;;;17.95;56.14;100167.69;5097502;28;9527;-59
2023/06/07 01:58:28;;;;;;;;;13.00;12.00;;;;;17.95;56.28;100167.69;5098206;28;9566;-60
2023/06/07 02:00:56;;;;;;;;;11.25;11.00;;;;;17.93;55.98;100169.69;5097865;28;8834;-60
2023/06/07 02:03:23;;;;;;;;;11.00;11.00;;;;;17.92;56.21;100162.63;5098016;28;9489;-60
2023/06/07 02:05:51;;;;;;;;;6.25;6.25;;;;;17.91;56.00;100163.63;5098129;28;8914;-57
2023/06/07 02:08:19;;;;;;;;;16.00;12.50;;;;;17.91;56.09;100160.09;5097806;28;8830;-59
2023/06/07 02:10:47;;;;;;;;;11.50;11.50;;;;;17.89;56.44;100154.00;5097971;28;8830;-57
2023/06/07 02:13:15;;;;;;;;;15.50;14.00;;;;;17.88;56.55;100152.34;5097899;28;8829;-59
2023/06/07 02:15:43;;;;;;;;;10.50;10.50;;;;;17.87;56.66;100156.91;5097723;28;8826;-59
2023/06/07 02:18:11;;;;;;;;;10.25;9.25;;;;;17.88;56.47;100160.41;5097435;28;8943;-57
2023/06/07 02:20:39;;;;;;;;;9.00;8.50;;;;;17.87;56.79;100154.19;5097945;28;9480;-59
2023/06/07 02:23:07;;;;;;;;;12.25;12.25;;;;;17.86;56.60;100149.81;5097336;28;8847;-60
2023/06/07 02:25:35;;;;;;;;;13.50;12.75;;;;;17.85;56.59;100152.66;5097488;28;8834;-57
2023/06/07 02:28:03;;;;;;;;;13.50;13.00;;;;;17.85;56.42;100150.81;5097384;28;8825;-59
2023/06/07 02:30:31;;;;;;;;;9.25;9.25;;;;;17.85;56.34;100148.09;5097474;28;8814;-58
2023/06/07 02:32:58;;;;;;;;;15.75;13.00;;;;;17.84;56.17;100148.28;5097398;28;8850;-57
2023/06/07 02:35:26;;;;;;;;;15.50;12.00;;;;;17.81;57.09;100144.06;5097111;28;8841;-59
2023/06/07 02:37:54;;;;;;;;;14.00;11.00;;;;;17.80;56.91;100149.59;5097625;28;8832;-59
2023/06/07 02:40:22;;;;;;;;;12.50;11.00;;;;;17.78;56.50;100152.47;5097371;28;8837;-58
2023/06/07 02:42:50;;;;;;;;;12.50;12.50;;;;;17.76;57.08;100148.25;5097593;28;8844;-57
2023/06/07 02:45:17;;;;;;;;;12.25;12.25;;;;;17.75;56.81;100149.28;5097478;28;9475;-59
2023/06/07 02:47:45;;;;;;;;;10.75;9.25;;;;;17.73;57.00;100149.44;5096564;28;8937;-59
2023/06/07 02:50:13;;;;;;;;;13.25;11.25;;;;;17.69;57.33;100147.22;5096959;28;8937;-60
2023/06/07 02:52:44;;;;;;;;;10.75;10.75;;;;;17.67;57.51;100152.75;5096715;28;8822;-58
2023/06/07 02:55:11;;;;;;;;;13.00;12.25;;;;;17.67;57.58;100154.59;5097122;28;8842;-58
2023/06/07 02:57:40;;;;;;;;;14.50;12.00;;;;;17.65;57.09;100159.31;5096960;28;8861;-58
2023/06/07 03:00:10;;;;;;;;;11.00;10.00;;;;;17.62;57.05;100149.69;5096725;28;8854;-58
2023/06/07 03:02:38;;;;;;;;;14.50;14.50;;;;;17.60;57.53;100150.88;5096788;28;8976;-59
2023/06/07 03:05:06;;;;;;;;;10.00;10.00;;;;;17.58;56.93;100144.78;5096743;28;8834;-58
2023/06/07 03:07:34;;;;;;;;;16.00;12.25;;;;;17.56;57.26;100149.50;5096594;28;8821;-60
2023/06/07 03:10:02;;;;;;;;;12.00;11.50;;;;;17.53;57.34;100156.06;5096413;28;8806;-59
2023/06/07 03:12:30;;;;;;;;;9.00;9.00;;;;;17.52;57.71;100151.69;5096123;28;8841;-60
2023/06/07 03:15:00;;;;;;;;;12.50;11.00;;;;;17.53;57.11;100144.47;5096608;28;8822;-60
2023/06/07 03:17:27;;;;;;;;;11.00;9.00;;;;;17.52;57.33;100149.00;5096229;28;8824;-60
2023/06/07 03:19:56;;;;;;;;;12.00;11.50;;;;;17.50;57.97;100159.09;5096428;28;8826;-59
2023/06/07 03:22:24;;;;;;;;;8.00;7.00;;;;;17.51;57.20;100154.53;5096471;28;8809;-60
2023/06/07 03:24:54;;;;;;;;;9.00;9.00;;;;;17.51;57.51;100152.69;5095978;28;8883;-60
2023/06/07 03:27:23;;;;;;;;;12.00;10.75;;;;;17.50;57.59;100159.09;5096392;28;8836;-60
2023/06/07 03:29:51;;;;;;;;;6.75;6.75;;;;;17.50;57.54;100161.78;5096563;28;8834;-60
2023/06/07 03:32:19;;;;;;;;;8.50;8.00;;;;;17.48;57.73;100158.38;5096141;28;8850;-59
2023/06/07 03:34:46;;;;;;;;;9.00;8.50;;;;;17.47;57.83;100156.69;5096775;28;8834;-60
2023/06/07 03:37:14;;;;;;;;;12.50;11.50;;;;;17.45;57.85;100160.56;5095988;28;8825;-60
2023/06/07 03:39:43;;;;;;;;;10.00;10.00;;;;;17.39;57.66;100162.03;5096541;28;8825;-60
2023/06/07 03:42:12;;;;;;;;;12.00;9.40;;;;;17.38;57.66;100164.91;5096588;28;9607;-59
2023/06/07 03:44:40;;;;;;;;;14.00;12.00;;;;;17.36;58.37;100173.13;5095824;28;8834;-60
2023/06/07 03:47:08;;;;;;;;;13.25;13.25;;;;;17.35;58.32;100167.88;5095606;28;8997;-60
2023/06/07 03:49:35;;;;;;;;;10.50;10.00;;;;;17.34;58.05;100172.44;5095670;28;8814;-59
2023/06/07 03:52:03;;;;;;;;;13.00;12.00;;;;;17.33;58.40;100170.72;5095836;28;8864;-60
2023/06/07 03:54:31;;;;;;;;;12.00;10.50;;;;;17.33;58.21;100172.56;5095441;28;8850;-59
2023/06/07 03:56:59;;;;;;;;;9.75;9.50;;;;;17.29;58.38;100168.50;5095652;28;8822;-59
2023/06/07 03:59:27;;;;;;;;;12.00;12.00;;;;;17.24;58.82;100168.16;5098583;28;8834;-60
2023/06/07 04:01:57;;;;;;;;;7.00;4.50;;;;;17.20;58.41;100175.69;5099931;28;8834;-59
2023/06/07 04:04:27;;;;;;;;;9.50;8.50;;;;;17.18;58.80;100177.72;5099881;28;8871;-60
2023/06/07 04:06:55;;;;;;;;;9.00;9.00;;;;;17.16;58.66;100168.94;5100138;28;8814;-59
2023/06/07 04:09:22;;;;;;;;;12.50;12.00;;;;;17.15;58.60;100177.19;5100294;28;8822;-60
2023/06/07 04:11:50;;;;;;;;;13.00;11.00;;;;;17.11;59.29;100173.97;5099803;28;8840;-60
2023/06/07 04:14:18;;;;;;;;;9.25;9.00;;;;;17.07;58.71;100177.97;5099578;28;8850;-59
2023/06/07 04:16:46;;;;;;;;;8.50;7.00;;;;;17.04;59.08;100174.72;5099605;28;8830;-60
2023/06/07 04:19:14;;;;;;;;;9.75;9.75;;;;;17.01;59.49;100167.81;5099800;28;8810;-59
2023/06/07 04:21:42;;;;;;;;;9.75;9.75;;;;;17.01;59.44;100170.50;5099228;28;8822;-60
2023/06/07 04:24:09;;;;;;;;;6.75;6.00;;;;;17.02;59.20;100172.19;5099479;28;8826;-58
2023/06/07 04:26:41;;;;;;;;;5.00;5.00;;;;;17.02;59.09;100177.56;5099724;28;8926;-57
2023/06/07 04:29:09;;;;;;;;;12.25;11.50;;;;;17.02;59.13;100182.13;5099158;28;8822;-58
2023/06/07 04:31:39;;;;;;;;;10.50;9.50;;;;;17.00;59.01;100182.28;5099401;28;8845;-58
2023/06/07 04:34:09;;;;;;;;;10.00;10.00;;;;;16.97;59.41;100182.59;5099158;28;8842;-60
2023/06/07 04:36:38;;;;;;;;;7.00;6.25;;;;;16.91;59.79;100177.84;5099025;28;8865;-59
2023/06/07 04:39:09;;;;;;;;;16.50;15.00;;;;;16.87;60.02;100179.13;5099134;28;8841;-60
2023/06/07 04:41:38;;;;;;;;;10.00;8.50;;;;;16.83;60.03;100177.78;5099455;28;8838;-59
2023/06/07 04:44:07;;;;;;;;;9.00;9.00;;;;;16.82;59.72;100172.53;5099376;28;8863;-59
2023/06/07 04:46:34;;;;;;;;;10.50;10.50;;;;;16.79;60.05;100175.56;5099436;28;8830;-60
2023/06/07 04:49:02;;;;;;;;;11.75;11.00;;;;;16.77;59.71;100170.31;5099227;28;8822;-59
2023/06/07 04:51:30;;;;;;;;;9.50;9.00;;;;;16.77;60.04;100172.16;5098991;28;8836;-57
2023/06/07 04:54:01;;;;;;;;;13.00;12.00;;;;;16.76;60.24;100176.72;5099053;28;8850;-60
2023/06/07 04:56:30;;;;;;;;;13.25;10.25;;;;;16.77;60.31;100175.69;5099189;28;8849;-60
2023/06/07 04:58:58;;;;;;;;;15.00;11.75;;;;;16.80;59.68;100174.56;5099358;28;8834;-60
2023/06/07 05:01:28;;;;;;;;;7.50;6.50;;;;;16.81;60.26;100173.53;5098443;28;8838;-59
2023/06/07 05:03:56;;;;;;;;;10.00;10.00;;;;;16.80;59.53;100175.38;5098794;28;8926;-60
2023/06/07 05:06:24;;;;;;;;;11.00;9.75;;;;;16.79;60.27;100176.38;5099147;28;8814;-59
2023/06/07 05:08:52;;;;;;;;;12.00;12.00;;;;;16.76;60.30;100175.84;5098262;28;8834;-59
2023/06/07 05:11:19;;;;;;;;;12.50;11.50;;;;;16.78;60.18;100188.16;5098644;28;8855;-59
2023/06/07 05:13:48;;;;;;;;;10.00;10.00;;;;;16.81;60.24;100182.47;5098309;28;9546;-58
2023/06/07 05:16:16;;;;;;;;;13.00;9.00;;;;;16.86;60.21;100187.38;5097890;28;8810;-59
2023/06/07 05:18:46;;;;;;;;;8.75;8.75;;;;;16.87;59.87;100183.69;5097805;28;8829;-58
2023/06/07 05:21:15;;;;;;;;;11.75;11.50;;;;;16.88;60.11;100180.84;5097483;28;8837;-59
2023/06/07 05:23:43;;;;;;;;;9.00;9.00;;;;;16.91;59.61;100185.91;5097390;28;8830;-60
2023/06/07 05:26:11;;;;;;;;;12.75;12.00;;;;;16.94;59.78;100192.81;5097191;28;8848;-58
2023/06/07 05:28:38;;;;;;;;;10.75;10.75;;;;;16.97;60.28;100195.19;5097068;28;8964;-60
2023/06/07 05:31:06;;;;;;;;;10.00;9.50;;;;;16.99;59.93;100188.66;5096852;28;8830;-60
2023/06/07 05:33:38;;;;;;;;;16.00;14.00;;;;;17.02;59.99;100190.19;5096616;28;9876;-60
2023/06/07 05:36:06;;;;;;;;;10.00;10.00;;;;;17.04;60.13;100197.13;5096349;28;8834;-60
2023/06/07 05:38:35;;;;;;;;;11.00;8.50;;;;;17.05;60.08;100203.31;5095792;28;8841;-59
2023/06/07 05:41:03;;;;;;;;;12.00;9.75;;;;;17.07;60.05;100196.78;5095514;28;8834;-58
2023/06/07 05:43:30;;;;;;;;;12.75;10.00;;;;;17.05;60.21;100204.19;5096937;28;8837;-58
2023/06/07 05:45:59;;;;;;;;;13.00;12.25;;;;;17.06;59.96;100199.63;5096756;28;8834;-57
2023/06/07 05:48:26;;;;;;;;;13.25;10.50;;;;;17.05;59.61;100204.19;5096543;28;8830;-58
2023/06/07 05:50:54;;;;;;;;;12.75;10.00;;;;;17.04;59.85;100202.50;5095922;28;8852;-57
2023/06/07 05:53:23;;;;;;;;;10.25;9.25;;;;;17.04;60.22;100204.34;5097139;28;8830;-58
2023/06/07 05:55:51;;;;;;;;;12.25;12.25;;;;;17.04;60.23;100209.72;5097033;28;8841;-57
2023/06/07 05:58:19;;;;;;;;;10.50;9.50;;;;;17.04;60.47;100207.88;5096967;28;8834;-57
2023/06/07 06:00:47;;;;;;;;;13.25;13.25;;;;;17.04;60.38;100207.88;5096409;28;8976;-58
2023/06/07 06:03:16;;;;;;;;;12.50;11.50;;;;;17.02;60.03;100215.25;5096259;28;8868;-58
2023/06/07 06:05:44;;;;;;;;;10.25;9.50;;;;;17.01;60.42;100205.50;5096750;28;9492;-59
2023/06/07 06:08:16;;;;;;;;;13.00;12.25;;;;;17.01;60.75;100204.66;5095856;28;8848;-58
2023/06/07 06:10:45;;;;;;;;;16.00;13.00;;;;;17.02;60.65;100212.56;5095648;28;8833;-57
2023/06/07 06:13:12;;;;;;;;;15.00;11.00;;;;;17.02;60.87;100204.47;5095870;28;8826;-57
2023/06/07 06:15:40;;;;;;;;;12.25;10.00;;;;;17.03;60.87;100206.19;5095780;28;8830;-57
2023/06/07 06:18:08;;;;;;;;;13.25;12.00;;;;;17.01;60.94;100210.88;5096404;28;8854;-58
2023/06/07 06:20:37;;;;;;;;;12.00;12.00;;;;;17.00;60.88;100214.56;5094980;28;8838;-60
2023/06/07 06:23:05;;;;;;;;;9.75;8.75;;;;;16.99;61.12;100210.19;5095002;28;8854;-60
2023/06/07 06:25:33;;;;;;;;;16.25;12.00;;;;;16.98;61.28;100210.34;5095550;28;8830;-58
2023/06/07 06:28:01;;;;;;;;;13.50;10.50;;;;;16.98;60.80;100218.41;5095615;28;8842;-59
2023/06/07 06:30:29;;;;;;;;;9.50;9.25;;;;;16.96;61.15;100215.91;5095558;28;8876;-58
2023/06/07 06:32:59;;;;;;;;;15.50;14.00;;;;;16.96;60.89;100220.41;5095320;28;8846;-60
2023/06/07 06:35:28;;;;;;;;;12.00;10.50;;;;;16.92;61.30;100216.34;5095668;28;8838;-60
2023/06/07 06:37:56;;;;;;;;;12.50;12.00;;;;;16.89;61.56;100220.19;5095608;28;8830;-60
2023/06/07 06:40:24;;;;;;;;;12.00;9.75;;;;;16.84;61.39;100217.13;5095463;28;8976;-60
2023/06/07 06:42:51;;;;;;;;;15.00;13.00;;;;;16.81;61.71;100224.66;5096313;28;8918;-59
2023/06/07 06:45:20;;;;;;;;;10.50;10.00;;;;;16.78;61.65;100231.19;5095480;28;9516;-60
2023/06/07 06:47:48;;;;;;;;;9.75;9.75;;;;;16.77;61.74;100232.19;5095707;28;8964;-59
2023/06/07 06:50:16;;;;;;;;;6.25;5.00;;;;;16.76;61.82;100224.25;5095707;28;8822;-60
2023/06/07 06:52:47;;;;;;;;;14.00;13.00;;;;;16.71;61.57;100224.72;5095603;28;8790;-57
2023/06/07 06:55:15;;;;;;;;;12.25;12.25;;;;;16.68;61.94;100222.34;5095066;28;8829;-59
2023/06/07 06:57:43;;;;;;;;;13.00;12.00;;;;;16.63;62.35;100232.72;5094673;28;8911;-58
2023/06/07 07:00:11;;;;;;;;;15.00;13.00;;;;;16.59;61.98;100238.56;5094526;28;8985;-59
2023/06/07 07:02:39;;;;;;;;;15.25;15.00;;;;;16.52;62.58;100237.47;5094670;28;8865;-60
2023/06/07 07:05:07;;;;;;;;;13.00;12.25;;;;;16.46;62.54;100235.41;5095209;28;8830;-60
2023/06/07 07:07:35;;;;;;;;;13.00;13.00;;;;;16.42;62.87;100240.22;5095132;28;8830;-57
2023/06/07 07:10:05;;;;;;;;;18.00;15.75;;;;;16.41;62.72;100235.84;5095713;28;8957;-60
2023/06/07 07:12:33;;;;;;;;;14.75;12.50;;;;;16.38;62.53;100233.47;5095274;28;9468;-60
2023/06/07 07:15:02;;;;;;;;;13.50;12.00;;;;;16.39;62.65;100229.78;5095390;28;8829;-57
2023/06/07 07:17:30;;;;;;;;;12.75;12.75;;;;;16.40;62.79;100228.78;5095119;28;8911;-58
2023/06/07 07:19:58;;;;;;;;;13.00;12.25;;;;;16.43;62.74;100231.19;5095026;28;8838;-59
2023/06/07 07:22:28;;;;;;;;;12.00;12.00;;;;;16.49;62.63;100238.63;5095195;28;8842;-59
2023/06/07 07:24:57;;;;;;;;;17.75;16.25;;;;;16.55;61.92;100235.34;5094347;28;8845;-59
2023/06/07 07:27:25;;;;;;;;;16.50;15.25;;;;;16.59;62.13;100238.56;5094750;28;8830;-58
2023/06/07 07:29:53;;;;;;;;;11.50;10.25;;;;;16.56;62.49;100241.56;5094635;28;8837;-57
2023/06/07 07:32:21;;;;;;;;;16.25;16.25;;;;;16.54;62.37;100243.53;5094595;28;8854;-59
2023/06/07 07:34:50;;;;;;;;;17.00;13.50;;;;;16.56;62.90;100242.41;5094713;28;8830;-59
2023/06/07 07:37:19;;;;;;;;;15.00;12.00;;;;;16.59;62.61;100247.50;5094058;28;8818;-59
2023/06/07 07:39:47;;;;;;;;;10.50;9.50;;;;;16.62;62.80;100241.78;5094699;28;8837;-57
2023/06/07 07:42:18;;;;;;;;;16.00;15.25;;;;;16.64;62.77;100252.41;5093802;28;8879;-58
2023/06/07 07:44:48;;;;;;;;;16.25;14.50;;;;;16.67;62.44;100247.56;5093885;28;8845;-59
2023/06/07 07:47:16;;;;;;;;;15.75;14.50;;;;;16.72;62.26;100247.94;5093638;28;9670;-59
2023/06/07 07:49:44;;;;;;;;;11.75;10.25;;;;;16.77;62.11;100252.84;5094201;28;8902;-57
2023/06/07 07:52:12;;;;;;;;;20.00;18.25;;;;;16.80;62.19;100245.31;5094218;28;8903;-58
2023/06/07 07:54:40;;;;;;;;;8.00;7.00;;;;;16.85;62.61;100250.25;5093842;28;8822;-59
2023/06/07 07:57:08;;;;;;;;;14.50;12.25;;;;;16.86;62.12;100252.78;5094781;28;8856;-59
2023/06/07 07:59:40;;;;;;;;;14.00;14.00;;;;;16.89;62.25;100249.78;5094996;28;8865;-57
2023/06/07 08:02:08;;;;;;;;;21.00;16.00;;;;;16.89;62.33;100249.78;5094563;28;8866;-58
2023/06/07 08:04:36;;;;;;;;;13.00;13.00;;;;;16.86;62.89;100250.09;5094585;28;8865;-59
2023/06/07 08:07:04;;;;;;;;;14.50;13.00;;;;;16.87;63.01;100248.25;5094862;28;8849;-59
2023/06/07 08:09:32;;;;;;;;;17.25;16.50;;;;;16.86;62.61;100243.88;5094491;28;8876;-59
2023/06/07 08:12:00;;;;;;;;;15.25;13.50;;;;;16.85;62.78;100250.25;5094314;28;8822;-58
2023/06/07 08:14:28;;;;;;;;;15.50;14.50;;;;;16.83;63.07;100253.09;5094129;28;9029;-59
2023/06/07 08:16:56;;;;;;;;;17.50;15.50;;;;;16.85;63.20;100256.47;5094452;28;8826;-56
2023/06/07 08:19:26;;;;;;;;;13.75;12.50;;;;;16.86;62.83;100255.47;5094548;28;8846;-59
2023/06/07 08:21:54;;;;;;;;;19.25;15.75;;;;;16.97;62.20;100262.47;5094469;28;8837;-59
2023/06/07 08:24:22;;;;;;;;;10.25;10.25;;;;;17.08;62.62;100255.00;5094236;28;8856;-59
2023/06/07 08:26:51;;;;;;;;;19.50;19.50;;;;;17.19;62.15;100257.47;5093830;28;8814;-59
2023/06/07 08:29:18;;;;;;;;;17.50;17.00;;;;;17.27;61.85;100262.91;5094980;28;8899;-59
2023/06/07 08:31:49;;;;;;;;;18.50;18.00;;;;;17.27;61.84;100264.72;5094142;28;8834;-59
2023/06/07 08:34:17;;;;;;;;;20.75;19.00;;;;;17.26;62.41;100257.66;5093768;28;8830;-58
2023/06/07 08:36:46;;;;;;;;;19.00;18.25;;;;;17.20;62.63;100261.84;5094479;28;8826;-58
2023/06/07 08:39:14;;;;;;;;;20.00;18.50;;;;;17.15;62.67;100264.13;5094449;28;8935;-59
2023/06/07 08:41:42;;;;;;;;;20.75;16.50;;;;;17.15;62.76;100269.53;5094500;28;9504;-58
2023/06/07 08:44:10;;;;;;;;;24.00;20.00;;;;;17.16;62.57;100271.22;5094709;28;8830;-56
2023/06/07 08:46:38;;;;;;;;;19.25;19.00;;;;;17.20;62.51;100263.66;5097795;28;8834;-58
2023/06/07 08:49:06;;;;;;;;;25.25;21.75;;;;;17.29;62.41;100258.19;5098472;28;9536;-59
2023/06/07 08:51:34;;;;;;;;;24.25;20.00;;;;;17.43;62.79;100256.81;5097322;28;8834;-57
2023/06/07 08:54:02;;;;;;;;;21.75;19.00;;;;;17.50;62.36;100258.72;5097148;28;8826;-59
2023/06/07 08:56:31;;;;;;;;;23.00;21.50;;;;;17.61;62.16;100266.53;5097815;28;9508;-58
2023/06/07 08:58:59;;;;;;;;;27.00;24.00;;;;;17.68;62.36;100256.81;5097608;28;8977;-60
2023/06/07 09:01:28;;;;;;;;;19.75;16.50;;;;;17.66;62.39;100268.75;5097424;28;8814;-58
2023/06/07 09:03:58;;;;;;;;;18.00;17.00;;;;;17.63;62.15;100269.06;5097089;28;8865;-59
2023/06/07 09:06:26;;;;;;;;;15.50;15.00;;;;;17.59;62.90;100265.84;5096435;28;8830;-56
2023/06/07 09:08:54;;;;;;;;;24.50;22.50;;;;;17.59;62.85;100268.53;5096726;28;8818;-59
2023/06/07 09:11:22;;;;;;;;;15.00;14.00;;;;;17.63;62.27;100266.38;5097300;28;9500;-59
2023/06/07 09:13:51;;;;;;;;;17.00;15.00;;;;;17.69;62.71;100268.44;5096512;28;8826;-59
2023/06/07 09:16:19;;;;;;;;;21.75;18.50;;;;;17.73;62.40;100264.41;5096620;28;8833;-59
2023/06/07 09:18:53;;;;;;;;;20.00;18.75;;;;;17.80;62.14;100260.94;5096894;28;9604;-57
2023/06/07 09:21:22;;;;;;;;;24.00;22.50;;;;;17.98;62.22;100271.66;5096899;28;9550;-59
2023/06/07 09:23:50;;;;;;;;;28.00;26.00;;;;;18.11;62.26;100264.78;5097196;28;8849;-59
2023/06/07 09:26:18;;;;;;;;;24.75;23.25;;;;;18.25;61.88;100258.78;5096814;28;8838;-59
2023/06/07 09:28:46;;;;;;;;;25.00;21.00;;;;;18.45;61.42;100256.69;5097934;28;8988;-57
2023/06/07 09:31:15;;;;;;;;;21.25;20.00;;;;;18.77;61.07;100268.41;5097770;28;8842;-59
2023/06/07 09:33:44;;;;;;;;;24.25;23.50;;;;;19.10;60.19;100269.25;5097356;28;8932;-58
2023/06/07 09:36:13;;;;;;;;;25.25;24.25;;;;;19.33;59.79;100257.66;5097727;28;8884;-59
2023/06/07 09:38:41;;;;;;;;;29.25;26.75;;;;;19.57;59.57;100264.91;5098339;28;9504;-59
2023/06/07 09:41:10;;;;;;;;;25.40;21.80;;;;;19.72;59.22;100255.09;5097487;28;8826;-59
2023/06/07 09:43:38;;;;;;;;;24.80;22.40;;;;;19.76;59.84;100262.66;5096961;28;8826;-59
2023/06/07 09:46:06;;;;;;;;;23.20;22.80;;;;;19.74;59.45;100255.75;5096552;28;8834;-59
2023/06/07 09:48:35;;;;;;;;;20.80;20.20;;;;;19.68;60.10;100260.00;5096924;28;8838;-57
2023/06/07 09:51:03;;;;;;;;;24.80;21.80;;;;;19.63;59.99;100256.94;5096755;28;8942;-59
2023/06/07 09:53:31;;;;;;;;;27.40;23.80;;;;;19.65;59.77;100256.78;5096209;28;8956;-58
2023/06/07 09:56:00;;;;;;;;;24.00;20.60;;;;;19.88;60.05;100246.94;5094943;28;8838;-59
2023/06/07 09:58:28;;;;;;;;;22.00;19.40;;;;;20.13;59.68;100243.13;5096563;28;8842;-58
2023/06/07 10:00:57;;;;;;;;;28.20;23.00;;;;;20.40;59.05;100245.38;5096331;28;8941;-59
2023/06/07 10:03:27;;;;;;;;;26.00;23.80;;;;;20.70;58.62;100248.06;5096463;28;8834;-59
2023/06/07 10:05:55;;;;;;;;;27.60;26.80;;;;;20.84;58.50;100247.31;5096471;28;8822;-59
2023/06/07 10:08:23;;;;;;;;;28.00;23.40;;;;;21.04;58.14;100241.25;5096254;28;8830;-59
2023/06/07 10:10:53;;;;;;;;;21.00;19.80;;;;;21.28;57.39;100235.66;5096772;28;8834;-59
2023/06/07 10:13:21;;;;;;;;;28.80;24.40;;;;;21.23;57.98;100234.50;5096090;28;8834;-59
2023/06/07 10:15:50;;;;;;;;;27.40;24.80;;;;;21.21;57.72;100236.56;5095482;28;9519;-59
2023/06/07 10:18:18;;;;;;;;;27.40;25.20;;;;;21.19;57.78;100235.91;5095996;28;8848;-59
2023/06/07 10:20:46;;;;;;;;;26.80;25.80;;;;;21.11;58.43;100238.69;5096093;28;8842;-59
2023/06/07 10:23:15;;;;;;;;;21.00;18.40;;;;;20.97;58.89;100236.75;5097979;28;8841;-59
2023/06/07 10:25:43;;;;;;;;;33.20;28.20;;;;;20.87;59.10;100238.03;5096116;28;9043;-59
2023/06/07 10:28:11;;;;;;;;;26.40;23.80;;;;;20.75;59.75;100240.28;5095209;28;8833;-59
2023/06/07 10:30:39;;;;;;;;;30.40;24.80;;;;;20.71;59.81;100238.94;5094798;28;9510;-59
2023/06/07 10:33:07;;;;;;;;;25.60;25.00;;;;;20.69;59.72;100245.56;5094669;28;8842;-57
2023/06/07 10:35:35;;;;;;;;;27.20;25.80;;;;;20.56;60.07;100250.72;5094684;28;8837;-59
2023/06/07 10:38:03;;;;;;;;;31.20;29.20;;;;;20.39;60.36;100243.72;5095220;28;8834;-59
2023/06/07 10:40:32;;;;;;;;;33.60;28.80;;;;;20.25;61.15;100247.16;5094288;28;8961;-59
2023/06/07 10:43:00;;;;;;;;;30.40;27.40;;;;;20.14;61.01;100251.09;5093780;28;8845;-59
2023/06/07 10:45:30;;;;;;;;;29.60;26.20;;;;;20.02;61.80;100241.63;5094125;28;8845;-59
2023/06/07 10:47:58;;;;;;;;;34.20;30.60;;;;;19.92;61.61;100251.81;5094046;28;8915;-59
2023/06/07 10:50:26;;;;;;;;;27.40;25.00;;;;;19.93;62.00;100239.97;5093567;28;8885;-57
2023/06/07 10:52:57;;;;;;;;;26.75;24.00;;;;;20.09;61.48;100241.81;5094281;28;8830;-59
2023/06/07 10:55:26;;;;;;;;;28.50;25.50;;;;;20.41;61.23;100239.78;5093687;28;8841;-59
2023/06/07 10:57:55;;;;;;;;;31.60;29.00;;;;;20.58;60.50;100235.13;5094558;28;8826;-59
2023/06/07 11:00:24;;;;;;;;;36.80;34.20;;;;;20.69;60.35;100238.28;5095337;28;8961;-59
2023/06/07 11:02:52;;;;;;;;;34.00;31.25;;;;;20.77;60.06;100232.78;5094351;28;8846;-59
2023/06/07 11:05:23;;;;;;;;;31.00;28.60;;;;;20.71;60.11;100233.50;5094476;28;8884;-59
2023/06/07 11:07:51;;;;;;;;;33.40;27.60;;;;;20.66;60.29;100230.53;5093108;28;8852;-58
2023/06/07 11:10:19;;;;;;;;;32.40;26.20;;;;;20.61;60.40;100232.06;5093144;28;8860;-59
2023/06/07 11:12:47;;;;;;;;;34.40;30.40;;;;;20.53;60.93;100226.69;5093307;28;8837;-59
2023/06/07 11:15:16;;;;;;;;;37.20;32.20;;;;;20.44;61.11;100225.06;5093391;28;8822;-58
2023/06/07 11:17:44;;;;;;;;;37.00;34.60;;;;;20.35;61.44;100232.41;5094449;28;8857;-57
2023/06/07 11:20:12;;;;;;;;;34.80;29.60;;;;;20.25;61.50;100220.09;5094012;28;8822;-59
2023/06/07 11:22:41;;;;;;;;;35.60;29.80;;;;;20.12;62.16;100220.69;5093686;28;8968;-59
2023/06/07 11:25:09;;;;;;;;;37.60;29.40;;;;;20.00;62.02;100224.75;5094184;28;8948;-59